createdAt,value
2023-04-18T00:01:15.569Z,99090.75
2023-04-18T00:03:42.294Z,99089.88
2023-04-18T00:06:08.964Z,99088.75
2023-04-18T00:08:35.439Z,99079.69
2023-04-18T00:11:01.863Z,99083.44
2023-04-18T00:13:28.582Z,99091.44
2023-04-18T00:15:55.780Z,99084.22
2023-04-18T00:18:22.250Z,99084.59
2023-04-18T00:20:48.978Z,99082.94
2023-04-18T00:23:15.461Z,99085.69
2023-04-18T00:25:41.870Z,99085.78
2023-04-18T00:28:08.338Z,99097.72
2023-04-18T00:30:35.221Z,99085.94
2023-04-18T00:33:02.037Z,99081.28
2023-04-18T00:35:29.318Z,99092.63
2023-04-18T00:37:56.006Z,99088.09
2023-04-18T00:40:22.440Z,99088.91
2023-04-18T00:42:48.847Z,99092.88
2023-04-18T00:45:15.338Z,99085.44
2023-04-18T00:47:41.818Z,99085.75
2023-04-18T00:50:08.267Z,99088.91
2023-04-18T00:52:34.675Z,99082.34
2023-04-18T00:55:01.113Z,99084.63
2023-04-18T00:57:27.565Z,99086.38
2023-04-18T00:59:54.275Z,99090.91
2023-04-18T01:02:20.848Z,99090.50
2023-04-18T01:04:47.410Z,99086.84
2023-04-18T01:07:13.798Z,99089.59
2023-04-18T01:09:40.419Z,99075.06
2023-04-18T01:12:06.861Z,99079.09
2023-04-18T01:14:33.376Z,99092.59
2023-04-18T01:16:59.945Z,99082.59
2023-04-18T01:19:26.365Z,99087.84
2023-04-18T01:21:53.435Z,99077.47
2023-04-18T01:24:19.893Z,99080.94
2023-04-18T01:26:48.651Z,99086.22
2023-04-18T01:29:15.159Z,99088.84
2023-04-18T01:31:42.060Z,99079.41
2023-04-18T01:34:08.654Z,99081.38
2023-04-18T01:36:35.302Z,99087.31
2023-04-18T01:39:01.817Z,99084.88
2023-04-18T01:41:31.497Z,99083.91
2023-04-18T01:43:57.950Z,99088.88
2023-04-18T01:46:25.405Z,99089.16
2023-04-18T01:48:51.926Z,99074.22
2023-04-18T01:51:18.353Z,99078.34
2023-04-18T01:53:44.737Z,99069.56
2023-04-18T01:56:11.167Z,99089.19
2023-04-18T01:58:37.900Z,99080.44
2023-04-18T02:01:04.377Z,99095.53
2023-04-18T02:03:31.357Z,99087.19
2023-04-18T02:05:57.984Z,99083.97
2023-04-18T02:08:24.513Z,99087.16
2023-04-18T02:10:51.124Z,99088.00
2023-04-18T02:13:17.658Z,99094.50
2023-04-18T02:15:44.108Z,99097.63
2023-04-18T02:18:14.990Z,99079.59
2023-04-18T02:20:41.580Z,99077.97
2023-04-18T02:23:08.015Z,99091.47
2023-04-18T02:25:34.403Z,99094.81
2023-04-18T02:28:01.893Z,99084.63
2023-04-18T02:30:28.364Z,99085.63
2023-04-18T02:32:54.838Z,99094.59
2023-04-18T02:35:21.356Z,99098.75
2023-04-18T02:37:48.308Z,99098.94
2023-04-18T02:40:14.812Z,99092.13
2023-04-18T02:42:41.294Z,99092.28
2023-04-18T02:45:07.722Z,99094.66
2023-04-18T02:47:40.792Z,99100.16
2023-04-18T02:50:13.729Z,99098.22
2023-04-18T02:52:40.209Z,99090.31
2023-04-18T02:55:06.597Z,99092.09
2023-04-18T02:57:33.242Z,99090.00
2023-04-18T02:59:59.661Z,99094.78
2023-04-18T03:02:26.312Z,99097.63
2023-04-18T03:04:52.961Z,99092.34
2023-04-18T03:07:19.568Z,99091.81
2023-04-18T03:09:46.065Z,99093.88
2023-04-18T03:12:12.514Z,99095.53
2023-04-18T03:14:39.356Z,99091.28
2023-04-18T03:17:05.753Z,99095.31
2023-04-18T03:19:32.188Z,99094.00
2023-04-18T03:21:58.668Z,99097.06
2023-04-18T03:24:25.123Z,99098.41
2023-04-18T03:26:51.826Z,99093.66
2023-04-18T03:29:18.282Z,99095.56
2023-04-18T03:31:44.769Z,99081.56
2023-04-18T03:34:12.096Z,99098.00
2023-04-18T03:36:39.143Z,99080.88
2023-04-18T03:39:05.599Z,99096.69
2023-04-18T03:41:32.087Z,99095.72
2023-04-18T03:43:58.507Z,99094.16
2023-04-18T03:46:24.974Z,99098.41
2023-04-18T03:48:51.836Z,99101.53
2023-04-18T03:51:18.581Z,99086.56
2023-04-18T03:53:44.961Z,99095.25
2023-04-18T03:56:11.399Z,99100.13
2023-04-18T03:58:37.799Z,99100.81
2023-04-18T04:01:04.263Z,99102.16
2023-04-18T04:03:30.895Z,99105.19
2023-04-18T04:05:57.345Z,99117.97
2023-04-18T04:08:23.781Z,99114.56
2023-04-18T04:10:50.219Z,99116.13
2023-04-18T04:13:16.629Z,99117.44
2023-04-18T04:15:45.133Z,99119.25
2023-04-18T04:18:11.597Z,99117.47
2023-04-18T04:20:38.017Z,99123.94
2023-04-18T04:23:04.607Z,99120.06
2023-04-18T04:25:31.078Z,99126.63
2023-04-18T04:27:57.539Z,99120.53
2023-04-18T04:30:23.914Z,99129.34
2023-04-18T04:32:50.501Z,99129.22
2023-04-18T04:35:16.988Z,99136.94
2023-04-18T04:37:43.475Z,99130.34
2023-04-18T04:40:09.985Z,99135.88
2023-04-18T04:42:37.056Z,99146.25
2023-04-18T04:45:03.502Z,99135.50
2023-04-18T04:47:29.995Z,99140.59
2023-04-18T04:49:56.520Z,99145.09
2023-04-18T04:52:22.956Z,99139.88
2023-04-18T04:54:49.426Z,99149.41
2023-04-18T04:57:15.968Z,99144.31
2023-04-18T04:59:42.388Z,99154.09
2023-04-18T05:02:09.154Z,99154.69
2023-04-18T05:04:35.839Z,99147.41
2023-04-18T05:07:02.636Z,99150.44
2023-04-18T05:09:29.419Z,99143.56
2023-04-18T05:11:56.021Z,99159.53
2023-04-18T05:14:22.529Z,99150.88
2023-04-18T05:16:49.016Z,99153.50
2023-04-18T05:19:15.535Z,99149.41
2023-04-18T05:21:41.971Z,99156.72
2023-04-18T05:24:08.503Z,99157.25
2023-04-18T05:26:34.974Z,99154.81
2023-04-18T05:29:01.366Z,99149.34
2023-04-18T05:31:35.820Z,99170.50
2023-04-18T05:34:05.356Z,99158.44
2023-04-18T05:36:31.797Z,99156.50
2023-04-18T05:38:58.251Z,99167.81
2023-04-18T05:41:24.655Z,99166.59
2023-04-18T05:44:17.120Z,99158.28
2023-04-18T05:46:38.066Z,99163.72
2023-04-18T05:49:04.628Z,99169.53
2023-04-18T05:51:31.109Z,99163.72
2023-04-18T05:53:57.961Z,99162.38
2023-04-18T05:56:24.400Z,99167.81
2023-04-18T05:58:51.211Z,99162.84
2023-04-18T06:01:17.675Z,99163.16
2023-04-18T06:03:44.526Z,99164.41
2023-04-18T06:06:11.103Z,99165.50
2023-04-18T06:08:37.469Z,99163.00
2023-04-18T06:11:03.914Z,99160.16
2023-04-18T06:13:30.808Z,99166.34
2023-04-18T06:15:57.372Z,99164.91
2023-04-18T06:18:23.829Z,99156.03
2023-04-18T06:20:50.260Z,99179.63
2023-04-18T06:23:16.630Z,99176.41
2023-04-18T06:25:43.186Z,99177.66
2023-04-18T06:28:09.907Z,99179.88
2023-04-18T06:30:36.357Z,99184.03
2023-04-18T06:33:03.348Z,99181.78
2023-04-18T06:35:29.864Z,99183.94
2023-04-18T06:37:56.380Z,99178.00
2023-04-18T06:40:22.921Z,99185.66
2023-04-18T06:42:49.458Z,99188.38
2023-04-18T06:45:16.305Z,99178.69
2023-04-18T06:47:43.248Z,99185.31
2023-04-18T06:50:09.703Z,99194.00
2023-04-18T06:52:36.157Z,99190.94
2023-04-18T06:55:02.573Z,99186.34
2023-04-18T06:57:29.061Z,99190.91
2023-04-18T06:59:55.440Z,99197.88
2023-04-18T07:02:24.572Z,99199.44
2023-04-18T07:04:51.214Z,99192.38
2023-04-18T07:07:18.131Z,99192.69
2023-04-18T07:09:44.569Z,99196.97
2023-04-18T07:12:11.071Z,99196.03
2023-04-18T07:14:37.502Z,99200.28
2023-04-18T07:17:03.952Z,99193.34
2023-04-18T07:19:30.463Z,99196.66
2023-04-18T07:21:56.900Z,99192.28
2023-04-18T07:24:23.764Z,99195.41
2023-04-18T07:26:50.202Z,99195.28
2023-04-18T07:29:16.738Z,99192.16
2023-04-18T07:31:43.281Z,99199.53
2023-04-18T07:34:09.767Z,99200.00
2023-04-18T07:36:39.168Z,99206.38
2023-04-18T07:39:05.646Z,99202.81
2023-04-18T07:41:32.141Z,99201.47
2023-04-18T07:43:58.638Z,99206.56
2023-04-18T07:46:25.465Z,99198.53
2023-04-18T07:48:51.923Z,99205.81
2023-04-18T07:51:19.448Z,99214.06
2023-04-18T07:53:46.803Z,99204.00
2023-04-18T07:56:13.201Z,99207.25
2023-04-18T07:58:39.890Z,99213.13
2023-04-18T08:01:06.378Z,99213.00
2023-04-18T08:03:33.069Z,99218.97
2023-04-18T08:06:00.072Z,99214.03
2023-04-18T08:08:27.160Z,99217.53
2023-04-18T08:10:53.587Z,99216.28
2023-04-18T08:13:20.031Z,99212.31
2023-04-18T08:15:46.577Z,99212.34
2023-04-18T08:18:13.079Z,99216.66
2023-04-18T08:20:40.515Z,99217.31
2023-04-18T08:23:10.290Z,99209.16
2023-04-18T08:25:39.107Z,99221.97
2023-04-18T08:28:06.353Z,99216.78
2023-04-18T08:30:32.784Z,99223.22
2023-04-18T08:32:59.588Z,99225.28
2023-04-18T08:35:26.394Z,99225.50
2023-04-18T08:37:52.923Z,99229.72
2023-04-18T08:40:19.763Z,99232.50
2023-04-18T08:42:46.519Z,99238.47
2023-04-18T08:45:13.391Z,99225.16
2023-04-18T08:47:40.002Z,99232.47
2023-04-18T08:50:09.070Z,99231.84
2023-04-18T08:52:35.879Z,99239.94
2023-04-18T08:55:02.431Z,99237.03
2023-04-18T08:57:28.996Z,99241.44
2023-04-18T08:59:57.040Z,99232.19
2023-04-18T09:02:23.546Z,99239.00
2023-04-18T09:04:50.073Z,99234.44
2023-04-18T09:07:16.654Z,99248.09
2023-04-18T09:09:43.163Z,99241.66
2023-04-18T09:12:09.624Z,99240.06
2023-04-18T09:14:36.370Z,99243.97
2023-04-18T09:17:02.961Z,99235.19
2023-04-18T09:19:29.541Z,99246.63
2023-04-18T09:21:56.085Z,99236.28
2023-04-18T09:24:23.001Z,99243.09
2023-04-18T09:26:49.560Z,99242.00
2023-04-18T09:29:15.992Z,99241.41
2023-04-18T09:31:45.004Z,99243.59
2023-04-18T09:34:11.402Z,99243.09
2023-04-18T09:36:37.932Z,99246.97
2023-04-18T09:39:04.391Z,99242.34
2023-04-18T09:41:30.804Z,99242.84
2023-04-18T09:43:57.422Z,99241.84
2023-04-18T09:46:23.912Z,99234.09
2023-04-18T09:48:50.336Z,99237.16
2023-04-18T09:51:16.900Z,99238.78
2023-04-18T09:53:43.606Z,99245.16
2023-04-18T09:56:10.062Z,99240.59
2023-04-18T09:58:36.595Z,99230.34
2023-04-18T10:01:03.053Z,99240.47
2023-04-18T10:03:29.530Z,99243.81
2023-04-18T10:05:57.756Z,99241.00
2023-04-18T10:08:24.397Z,99246.59
2023-04-18T10:10:51.244Z,99244.03
2023-04-18T10:13:17.934Z,99253.28
2023-04-18T10:15:44.557Z,99235.00
2023-04-18T10:18:11.836Z,99248.19
2023-04-18T10:20:38.336Z,99249.66
2023-04-18T10:23:04.772Z,99253.94
2023-04-18T10:25:31.298Z,99251.59
2023-04-18T10:27:58.051Z,99248.56
2023-04-18T10:30:24.572Z,99245.91
2023-04-18T10:32:51.110Z,99246.47
2023-04-18T10:35:17.564Z,99251.78
2023-04-18T10:37:44.048Z,99246.66
2023-04-18T10:40:11.044Z,99248.59
2023-04-18T10:42:38.202Z,99247.81
2023-04-18T10:45:04.817Z,99249.50
2023-04-18T10:47:31.539Z,99252.72
2023-04-18T10:49:58.186Z,99246.19
2023-04-18T10:52:24.741Z,99246.09
2023-04-18T10:54:51.315Z,99247.31
2023-04-18T10:57:17.947Z,99257.06
2023-04-18T10:59:44.375Z,99243.19
2023-04-18T11:02:11.086Z,99245.72
2023-04-18T11:04:37.861Z,99239.13
2023-04-18T11:07:04.412Z,99237.00
2023-04-18T11:09:30.896Z,99247.38
2023-04-18T11:11:58.354Z,99236.72
2023-04-18T11:14:24.937Z,99225.63
2023-04-18T11:16:51.497Z,99231.78
2023-04-18T11:19:18.051Z,99234.13
2023-04-18T11:21:44.544Z,99230.38
2023-04-18T11:24:11.061Z,99239.28
2023-04-18T11:26:37.542Z,99237.41
2023-04-18T11:29:03.989Z,99236.47
2023-04-18T11:31:30.430Z,99234.13
2023-04-18T11:33:56.880Z,99243.97
2023-04-18T11:36:25.981Z,99241.25
2023-04-18T11:38:52.645Z,99238.47
2023-04-18T11:41:19.150Z,99238.22
2023-04-18T11:43:45.767Z,99245.50
2023-04-18T11:46:12.167Z,99234.03
2023-04-18T11:48:38.618Z,99234.22
2023-04-18T11:51:05.086Z,99234.19
2023-04-18T11:53:31.644Z,99225.28
2023-04-18T11:55:58.466Z,99237.59
2023-04-18T11:58:24.953Z,99224.38
2023-04-18T12:00:51.371Z,99232.66
2023-04-18T12:03:18.012Z,99239.00
2023-04-18T12:05:44.894Z,99225.66
2023-04-18T12:08:11.553Z,99230.47
2023-04-18T12:10:38.038Z,99227.72
2023-04-18T12:13:05.502Z,99237.75
2023-04-18T12:15:31.940Z,99234.78
2023-04-18T14:54:21.785Z,99228.88
2023-04-18T14:56:48.488Z,99243.34
2023-04-18T14:59:16.564Z,99251.78
2023-04-18T15:01:43.512Z,99246.66
2023-04-18T15:04:10.201Z,99249.13
2023-04-18T15:06:36.993Z,99244.47
2023-04-18T15:09:03.440Z,99245.50
2023-04-18T15:11:30.348Z,99244.75
2023-04-18T15:13:59.133Z,99242.09
2023-04-18T15:16:25.775Z,99247.78
2023-04-18T15:18:52.578Z,99245.50
2023-04-18T15:21:21.096Z,99247.59
2023-04-18T15:23:49.949Z,99253.84
2023-04-18T15:26:16.532Z,99242.31
2023-04-18T15:28:43.085Z,99248.56
2023-04-18T15:31:09.552Z,99253.06
2023-04-18T15:33:35.985Z,99246.47
2023-04-18T15:36:02.637Z,99253.38
2023-04-18T15:38:30.461Z,99249.88
2023-04-18T15:40:58.259Z,99249.88
2023-04-18T15:43:24.687Z,99241.53
2023-04-18T15:45:51.295Z,99255.06
2023-04-18T15:48:18.741Z,99254.88
2023-04-18T15:50:45.474Z,99255.00
2023-04-18T15:53:12.011Z,99258.97
2023-04-18T15:55:38.456Z,99260.00
2023-04-18T15:58:05.045Z,99266.03
2023-04-18T16:00:32.615Z,99261.97
2023-04-18T16:02:59.141Z,99263.09
2023-04-18T16:05:25.644Z,99251.31
2023-04-18T16:07:52.130Z,99256.09
2023-04-18T16:10:18.656Z,99260.47
2023-04-18T16:12:45.139Z,99260.44
2023-04-18T16:15:11.568Z,99257.34
2023-04-18T16:17:38.054Z,99258.09
2023-04-18T16:20:04.641Z,99267.44
2023-04-18T16:22:31.214Z,99258.88
2023-04-18T16:24:57.911Z,99260.09
2023-04-18T16:27:24.381Z,99263.31
2023-04-18T16:29:50.901Z,99262.34
2023-04-18T16:32:17.382Z,99254.25
2023-04-18T16:34:43.814Z,99268.97
2023-04-18T16:37:10.595Z,99263.19
2023-04-18T16:39:37.283Z,99259.50
2023-04-18T16:42:03.839Z,99266.59
2023-04-18T16:44:30.436Z,99257.53
2023-04-18T16:46:57.002Z,99256.81
2023-04-18T16:49:24.612Z,99259.59
2023-04-18T16:51:51.080Z,99262.34
2023-04-18T16:54:17.514Z,99264.47
2023-04-18T16:56:44.037Z,99271.22
2023-04-18T16:59:10.594Z,99258.53
2023-04-18T17:01:37.405Z,99268.84
2023-04-18T17:04:04.078Z,99261.59
2023-04-18T17:06:31.521Z,99259.88
2023-04-18T17:08:58.879Z,99265.41
2023-04-18T17:11:25.394Z,99258.34
2023-04-18T17:13:53.620Z,99267.41
2023-04-18T17:16:20.772Z,99274.78
2023-04-18T17:18:47.802Z,99274.78
2023-04-18T17:21:14.761Z,99273.94
2023-04-18T17:23:41.554Z,99277.63
2023-04-18T17:26:08.036Z,99268.88
2023-04-18T17:28:34.483Z,99266.69
2023-04-18T17:31:01.168Z,99278.75
2023-04-18T17:33:28.341Z,99290.59
2023-04-18T17:35:54.913Z,99297.19
2023-04-18T17:38:21.762Z,99295.69
2023-04-18T17:40:48.745Z,99294.56
2023-04-18T17:43:15.498Z,99288.50
2023-04-18T17:45:42.927Z,99287.94
2023-04-18T17:48:09.985Z,99308.16
2023-04-18T17:50:36.956Z,99307.31
2023-04-18T17:53:05.803Z,99300.56
2023-04-18T17:55:32.376Z,99289.69
2023-04-18T17:57:58.823Z,99289.44
2023-04-18T18:00:25.724Z,99291.75
2023-04-18T18:02:52.980Z,99294.66
2023-04-18T18:05:19.989Z,99303.50
2023-04-18T18:07:47.973Z,99301.66
2023-04-18T18:10:16.755Z,99313.75
2023-04-18T18:12:43.668Z,99318.28
2023-04-18T18:15:10.560Z,99315.97
2023-04-18T18:17:37.220Z,99324.19
2023-04-18T18:20:04.151Z,99322.72
2023-04-18T18:22:31.082Z,99326.19
2023-04-18T18:24:58.993Z,99329.88
2023-04-18T18:27:26.087Z,99319.31
2023-04-18T18:29:53.143Z,99318.56
2023-04-18T18:32:20.197Z,99320.66
2023-04-18T18:34:47.565Z,99318.38
2023-04-18T18:37:14.461Z,99314.25
2023-04-18T18:39:48.942Z,99311.03
2023-04-18T18:42:16.518Z,99313.81
2023-04-18T18:44:44.054Z,99321.06
2023-04-18T18:47:12.004Z,99327.59
2023-04-18T18:49:38.877Z,99325.72
2023-04-18T18:52:05.778Z,99328.72
2023-04-18T18:54:32.858Z,99331.25
2023-04-18T18:57:00.111Z,99325.56
2023-04-18T18:59:28.884Z,99332.19
2023-04-18T19:01:56.135Z,99324.69
2023-04-18T19:04:23.314Z,99329.28
2023-04-18T19:06:50.732Z,99326.25
2023-04-18T19:09:18.075Z,99326.59
2023-04-18T19:11:46.127Z,99322.59
2023-04-18T19:14:13.137Z,99335.75
2023-04-18T19:16:40.635Z,99331.00
2023-04-18T19:19:07.835Z,99330.91
2023-04-18T19:21:34.825Z,99329.47
2023-04-18T19:24:02.060Z,99328.09
2023-04-18T19:26:30.029Z,99322.72
2023-04-18T19:28:57.230Z,99330.84
2023-04-18T19:31:24.346Z,99334.75
2023-04-18T19:33:50.948Z,99327.59
2023-04-18T19:36:17.759Z,99321.28
2023-04-18T19:38:44.780Z,99329.22
2023-04-18T19:41:12.501Z,99329.59
2023-04-18T19:43:39.515Z,99329.44
2023-04-18T19:46:06.573Z,99331.94
2023-04-18T19:48:34.233Z,99333.63
2023-04-18T19:51:00.743Z,99335.25
2023-04-18T19:53:27.726Z,99339.66
2023-04-18T19:55:54.368Z,99323.84
2023-04-18T19:58:26.636Z,99327.38
2023-04-18T20:00:53.845Z,99329.91
2023-04-18T20:03:21.004Z,99322.34
2023-04-18T20:05:48.015Z,99330.63
2023-04-18T20:08:21.835Z,99330.41
2023-04-18T20:10:48.777Z,99334.06
2023-04-18T20:13:19.147Z,99330.59
2023-04-18T20:15:46.125Z,99332.03
2023-04-18T20:18:13.707Z,99325.94
2023-04-18T20:20:40.700Z,99334.13
2023-04-18T20:23:09.858Z,99327.03
2023-04-18T20:25:39.410Z,99330.53
2023-04-18T20:28:05.927Z,99335.63
2023-04-18T20:30:35.690Z,99342.16
2023-04-18T20:33:05.036Z,99330.31
2023-04-18T20:35:31.811Z,99326.47
2023-04-18T20:37:58.784Z,99332.19
2023-04-18T20:40:25.711Z,99336.97
2023-04-18T20:42:54.085Z,99333.72
2023-04-18T20:45:21.122Z,99339.88
2023-04-18T20:47:47.739Z,99343.06
2023-04-18T20:50:15.041Z,99336.69
2023-04-18T20:52:41.606Z,99328.94
2023-04-18T20:55:08.162Z,99344.53
2023-04-18T20:57:35.005Z,99345.78
2023-04-18T21:00:01.537Z,99346.50
2023-04-18T21:02:28.176Z,99340.53
2023-04-18T21:04:54.791Z,99348.59
2023-04-18T21:07:21.181Z,99347.50
2023-04-18T21:09:47.557Z,99342.09
2023-04-18T21:12:14.013Z,99343.41
2023-04-18T21:14:40.561Z,99345.28
2023-04-18T21:17:07.145Z,99354.13
2023-04-18T21:19:33.746Z,99359.41
2023-04-18T21:22:00.433Z,99354.13
2023-04-18T21:24:27.085Z,99352.56
2023-04-18T21:26:53.708Z,99352.00
2023-04-18T21:29:20.291Z,99357.47
2023-04-18T21:31:46.681Z,99352.22
2023-04-18T21:34:13.364Z,99349.06
2023-04-18T21:36:40.226Z,99350.25
2023-04-18T21:39:06.648Z,99355.69
2023-04-18T21:41:33.189Z,99346.13
2023-04-18T21:43:59.602Z,99335.94
2023-04-18T21:46:26.412Z,99350.16
2023-04-18T21:48:53.049Z,99338.13
2023-04-18T21:51:19.413Z,99344.09
2023-04-18T21:53:45.883Z,99347.66
2023-04-18T21:56:12.422Z,99345.28
2023-04-18T21:58:38.927Z,99345.78
2023-04-18T22:01:05.495Z,99341.78
2023-04-18T22:03:32.082Z,99339.34
2023-04-18T22:05:58.686Z,99337.81
2023-04-18T22:08:25.300Z,99337.81
2023-04-18T22:10:51.734Z,99334.13
2023-04-18T22:13:18.557Z,99331.25
2023-04-18T22:15:45.123Z,99329.97
2023-04-18T22:18:11.560Z,99332.50
2023-04-18T22:20:38.415Z,99330.41
2023-04-18T22:23:04.848Z,99333.03
2023-04-18T22:25:31.261Z,99328.84
2023-04-18T22:27:59.172Z,99327.22
2023-04-18T22:30:25.636Z,99331.34
2023-04-18T22:32:52.503Z,99325.28
2023-04-18T22:35:18.950Z,99326.22
2023-04-18T22:37:45.440Z,99330.56
2023-04-18T22:40:11.928Z,99328.00
2023-04-18T22:42:38.951Z,99323.94
2023-04-18T22:45:05.499Z,99320.19
2023-04-18T22:47:32.004Z,99325.81
2023-04-18T22:49:58.615Z,99316.28
2023-04-18T22:52:25.077Z,99317.72
2023-04-18T22:54:51.584Z,99318.41
2023-04-18T22:57:18.193Z,99314.94
2023-04-18T22:59:44.616Z,99317.50
2023-04-18T23:02:11.697Z,99311.06
2023-04-18T23:04:38.225Z,99309.22
2023-04-18T23:07:06.885Z,99314.69
2023-04-18T23:09:33.332Z,99314.84
2023-04-18T23:12:00.142Z,99309.16
2023-04-18T23:14:26.710Z,99312.53
2023-04-18T23:16:53.192Z,99309.53
2023-04-18T23:19:19.828Z,99300.00
2023-04-18T23:21:47.669Z,99310.22
2023-04-18T23:24:15.764Z,99302.66
2023-04-18T23:26:42.396Z,99305.56
2023-04-18T23:29:08.776Z,99308.94
2023-04-18T23:31:35.387Z,99311.09
2023-04-18T23:34:01.971Z,99299.44
2023-04-18T23:36:28.696Z,99298.03
2023-04-18T23:38:55.231Z,99294.00
2023-04-18T23:41:21.699Z,99296.91
2023-04-18T23:43:48.207Z,99281.44
2023-04-18T23:46:15.001Z,99287.56
2023-04-18T23:48:41.579Z,99286.59
2023-04-18T23:51:08.096Z,99281.91
2023-04-18T23:53:34.516Z,99276.31
2023-04-18T23:56:01.087Z,99280.41
2023-04-18T23:58:27.600Z,99279.13
